Time;durP1;ratioP1;P1;durP2;ratioP2;P2;SDS_P1;SDS_P2;PMS_P1;PMS_P2;Temp;Humidity;BMP_temperature;BMP_pressure;BME280_temperature;BME280_humidity;BME280_pressure;Samples;Min_cycle;Max_cycle;Signal;HPM_P1;HPM_P2
2023/02/27 00:01:52;;;;;;;1.00;1.00;;;;;;;11.99;85.71;96285.94;5022987;28;20069;-58
2023/02/27 00:04:19;;;;;;;1.00;1.00;;;;;;;12.08;85.24;96302.97;5023202;28;20447;-59
2023/02/27 00:06:45;;;;;;;0.90;0.90;;;;;;;12.26;85.25;96314.88;5021480;28;20045;-58
2023/02/27 00:09:12;;;;;;;1.00;1.00;;;;;;;12.26;84.51;96320.44;5023668;28;20073;-58
2023/02/27 00:11:39;;;;;;;1.02;1.02;;;;;;;12.12;84.85;96292.69;5023629;28;20059;-59
2023/02/27 00:14:05;;;;;;;1.00;1.00;;;;;;;12.30;84.42;96310.09;5023543;28;20119;-58
2023/02/27 00:16:33;;;;;;;1.00;1.00;;;;;;;12.28;84.22;96306.16;5024205;28;20479;-57
2023/02/27 00:19:03;;;;;;;1.00;1.00;;;;;;;12.08;86.02;96287.13;5023628;28;20050;-58
2023/02/27 00:21:31;;;;;;;0.90;0.90;;;;;;;11.85;85.18;96238.78;5023648;28;20057;-58
2023/02/27 00:23:58;;;;;;;1.00;1.00;;;;;;;11.97;85.54;96266.13;5023638;28;20417;-58
2023/02/27 00:26:24;;;;;;;0.95;0.95;;;;;;;11.70;86.07;96248.28;5024004;28;20068;-57
2023/02/27 00:28:51;;;;;;;0.90;0.90;;;;;;;11.66;86.61;96253.06;5022780;28;20049;-59
2023/02/27 00:31:18;;;;;;;0.90;0.90;;;;;;;11.89;86.16;96297.84;5023205;28;20050;-59
2023/02/27 00:33:44;;;;;;;0.82;0.82;;;;;;;11.87;85.66;96280.81;5023790;28;20587;-59
2023/02/27 00:36:11;;;;;;;1.00;1.00;;;;;;;11.97;85.57;96293.88;5023760;28;20131;-59
2023/02/27 00:38:38;;;;;;;0.90;0.90;;;;;;;11.52;86.11;96244.72;5023626;28;20128;-58
2023/02/27 00:41:05;;;;;;;0.90;0.90;;;;;;;11.85;86.41;96299.84;5023269;28;20057;-59
2023/02/27 00:43:31;;;;;;;1.00;1.00;;;;;;;11.86;86.23;96304.97;5023660;28;20054;-59
2023/02/27 00:45:58;;;;;;;1.00;1.00;;;;;;;11.88;86.16;96310.13;5023656;28;20061;-58
2023/02/27 00:48:24;;;;;;;0.90;0.90;;;;;;;11.68;87.17;96283.97;5022833;28;20395;-58
2023/02/27 00:50:51;;;;;;;0.90;0.90;;;;;;;11.82;86.07;96283.97;5026436;28;21002;-58
2023/02/27 00:53:18;;;;;;;0.90;0.90;;;;;;;11.80;86.65;96301.03;5026563;28;20045;-57
2023/02/27 00:55:44;;;;;;;1.00;1.00;;;;;;;11.84;86.64;96314.88;5026607;28;20260;-58
2023/02/27 00:58:11;;;;;;;1.00;1.00;;;;;;;11.87;86.09;96291.91;5026205;28;20520;-57
2023/02/27 01:00:38;;;;;;;1.00;1.00;;;;;;;11.91;86.03;96287.13;5026806;28;20065;-59
2023/02/27 01:03:04;;;;;;;0.90;0.90;;;;;;;11.48;85.82;96235.56;5025941;28;20045;-58
2023/02/27 01:05:31;;;;;;;0.90;0.90;;;;;;;11.49;86.03;96256.59;5026418;28;20060;-59
2023/02/27 01:07:58;;;;;;;0.98;0.98;;;;;;;11.87;86.02;96308.56;5015285;28;20100;-57
2023/02/27 01:10:24;;;;;;;0.90;0.90;;;;;;;9.92;85.53;96001.09;5006850;28;20492;-60
2023/02/27 01:12:51;;;;;;;0.90;0.90;;;;;;;11.87;86.78;96314.09;5007505;28;20053;-58
2023/02/27 01:15:18;;;;;;;1.00;1.00;;;;;;;11.92;86.37;96316.47;5006960;28;20129;-60
2023/02/27 01:17:46;;;;;;;0.90;0.90;;;;;;;11.93;86.04;96306.97;5006471;28;20157;-58
2023/02/27 01:20:14;;;;;;;0.82;0.82;;;;;;;11.80;86.79;96314.09;5005448;28;20500;-59
2023/02/27 01:22:41;;;;;;;0.90;0.90;;;;;;;11.63;86.67;96279.59;5007531;28;20124;-57
2023/02/27 01:25:08;;;;;;;0.90;0.90;;;;;;;11.80;87.14;96319.66;5006626;28;20054;-58
2023/02/27 01:27:35;;;;;;;0.90;0.90;;;;;;;11.77;86.75;96303.78;5005451;28;20430;-59
2023/02/27 01:30:02;;;;;;;0.98;0.98;;;;;;;11.74;86.91;96304.59;5006837;28;20140;-58
2023/02/27 01:32:29;;;;;;;0.90;0.90;;;;;;;11.74;87.12;96312.91;5006623;28;20301;-58
2023/02/27 01:34:56;;;;;;;0.90;0.90;;;;;;;11.63;88.12;96312.88;5007038;28;20054;-59
2023/02/27 01:37:22;;;;;;;0.90;0.90;;;;;;;11.54;89.11;96317.22;5006552;28;20161;-58
2023/02/27 01:39:49;;;;;;;0.90;0.90;;;;;;;11.49;88.65;96304.50;5008065;28;20133;-60
2023/02/27 01:42:22;;;;;;;0.85;0.85;;;;;;;11.53;88.83;96312.84;5026029;28;20076;-59
2023/02/27 01:45:21;;;;;;;0.90;0.90;;;;;;;11.66;88.80;96330.72;5026262;28;20138;-58
2023/02/27 01:47:51;;;;;;;0.90;0.90;;;;;;;11.52;89.29;96336.22;5021959;28;20111;-59
2023/02/27 01:50:19;;;;;;;0.90;0.90;;;;;;;11.61;88.79;96344.97;5026237;28;20068;-58
2023/02/27 01:52:51;;;;;;;0.90;0.90;;;;;;;11.54;89.13;96322.78;5025875;28;20092;-59
2023/02/27 01:55:19;;;;;;;0.90;0.90;;;;;;;11.56;89.09;96331.47;5017719;28;20049;-61
2023/02/27 01:57:48;;;;;;;0.90;0.90;;;;;;;11.45;88.54;96327.88;5004507;28;20050;-59
2023/02/27 02:00:15;;;;;;;0.90;0.90;;;;;;;11.36;88.30;96299.75;5005884;28;20133;-59
2023/02/27 02:02:51;;;;;;;0.80;0.80;;;;;;;11.61;88.80;96342.19;5006283;28;20111;-58
2023/02/27 02:05:19;;;;;;;1.00;1.00;;;;;;;11.28;89.11;96298.16;5006491;28;20137;-60
2023/02/27 02:07:47;;;;;;;0.90;0.90;;;;;;;11.60;88.79;96337.84;5005763;28;20157;-60
2023/02/27 02:10:15;;;;;;;0.90;0.90;;;;;;;11.45;89.36;96347.28;5006225;28;20062;-60
2023/02/27 02:12:43;;;;;;;0.90;0.90;;;;;;;11.32;90.11;96348.84;5005802;28;20104;-58
2023/02/27 02:15:10;;;;;;;0.90;0.90;;;;;;;11.36;91.12;96347.69;5005234;28;20136;-58
2023/02/27 02:18:15;;;;;;;0.90;0.90;;;;;;;11.33;93.04;96339.34;5006029;28;20107;-59
2023/02/27 02:21:00;;;;;;;0.90;0.90;;;;;;;11.35;92.26;96353.63;5005325;28;20151;-58
2023/02/27 02:24:04;;;;;;;0.80;0.80;;;;;;;11.02;93.81;96356.69;5005573;28;20112;-60
2023/02/27 02:26:49;;;;;;;0.90;0.90;;;;;;;11.10;92.19;96363.81;5006019;28;20144;-58
2023/02/27 02:29:25;;;;;;;0.80;0.80;;;;;;;11.05;92.20;96361.44;5005430;28;20049;-58
2023/02/27 02:31:57;;;;;;;0.80;0.80;;;;;;;11.09;93.27;96373.31;5004871;28;20054;-59
2023/02/27 02:34:30;;;;;;;0.80;0.80;;;;;;;10.96;96.78;96363.75;5005138;28;20132;-60
2023/02/27 02:37:00;;;;;;;0.88;0.88;;;;;;;10.97;98.08;96359.81;5005844;28;20464;-59
2023/02/27 02:40:02;;;;;;;0.80;0.80;;;;;;;10.96;98.52;96374.84;5005267;28;20050;-59
2023/02/27 02:42:34;;;;;;;0.90;0.90;;;;;;;10.96;97.27;96374.84;5005487;28;20093;-60
2023/02/27 02:45:41;;;;;;;0.80;0.80;;;;;;;10.99;96.85;96374.06;5005481;28;20069;-58
2023/02/27 02:48:15;;;;;;;0.90;0.90;;;;;;;10.90;96.33;96371.66;5003672;28;20057;-58
2023/02/27 02:50:54;;;;;;;0.85;0.85;;;;;;;10.98;95.76;96356.66;5005606;28;20100;-58
2023/02/27 02:53:26;;;;;;;0.90;0.90;;;;;;;11.03;94.49;96369.34;5005351;28;20080;-59
2023/02/27 02:56:23;;;;;;;0.80;0.80;;;;;;;11.05;93.81;96366.97;5005222;28;20402;-59
2023/02/27 02:59:03;;;;;;;0.90;0.90;;;;;;;10.87;94.33;96366.09;5005157;28;20081;-57
2023/02/27 03:01:36;;;;;;;0.88;0.88;;;;;;;10.86;93.73;96392.22;5005314;28;20060;-59
2023/02/27 03:04:09;;;;;;;0.80;0.80;;;;;;;10.80;92.85;96394.56;5003744;28;20054;-60
2023/02/27 03:06:42;;;;;;;0.90;0.90;;;;;;;10.21;93.32;96323.78;5005416;28;20060;-59
2023/02/27 03:09:18;;;;;;;0.80;0.80;;;;;;;10.14;94.02;96306.34;5004362;28;20058;-57
2023/02/27 03:11:49;;;;;;;0.90;0.90;;;;;;;10.67;94.69;96396.84;5004328;28;20145;-58
2023/02/27 03:14:32;;;;;;;0.90;0.90;;;;;;;10.70;94.59;96396.09;5003904;28;20050;-59
2023/02/27 03:17:04;;;;;;;0.80;0.80;;;;;;;10.68;94.60;96392.91;5005306;28;20077;-59
2023/02/27 03:19:56;;;;;;;0.80;0.80;;;;;;;10.54;96.11;96397.56;5005021;28;20057;-58
2023/02/27 03:22:29;;;;;;;0.77;0.77;;;;;;;10.40;97.65;96392.72;5005509;28;20388;-59
2023/02/27 03:25:00;;;;;;;0.80;0.80;;;;;;;10.34;97.29;96372.13;5004670;28;20042;-58
2023/02/27 03:27:37;;;;;;;0.90;0.90;;;;;;;10.33;98.08;96370.53;5004900;28;20181;-59
2023/02/27 03:30:09;;;;;;;0.90;0.90;;;;;;;10.07;97.85;96351.34;5004281;28;20465;-59
2023/02/27 03:32:42;;;;;;;0.80;0.80;;;;;;;10.30;99.42;96390.69;5004476;28;20597;-59
2023/02/27 03:35:11;;;;;;;0.80;0.80;;;;;;;10.31;100.00;96411.66;5002529;28;20057;-59
2023/02/27 03:37:58;;;;;;;0.80;0.80;;;;;;;10.46;98.62;96423.63;5005165;28;20049;-58
2023/02/27 03:40:34;;;;;;;0.70;0.70;;;;;;;10.43;98.43;96411.31;5004183;28;20144;-58
2023/02/27 03:43:33;;;;;;;0.80;0.80;;;;;;;10.08;97.03;96319.75;5004988;28;20053;-58
2023/02/27 03:46:09;;;;;;;0.75;0.75;;;;;;;10.14;100.00;96428.91;5004186;28;20046;-58
2023/02/27 03:48:36;;;;;;;0.80;0.80;;;;;;;9.65;100.00;96308.69;5004585;28;20058;-58
2023/02/27 03:51:03;;;;;;;0.75;0.75;;;;;;;10.40;98.82;96414.09;5003320;28;20293;-58
2023/02/27 03:53:57;;;;;;;0.80;0.80;;;;;;;9.79;98.15;96315.16;5004470;28;20488;-60
2023/02/27 03:56:30;;;;;;;0.80;0.80;;;;;;;9.94;98.55;96374.16;5004463;28;20054;-59
2023/02/27 03:58:57;;;;;;;0.80;0.80;;;;;;;10.22;99.70;96441.63;5004050;28;20096;-59
2023/02/27 04:01:24;;;;;;;0.70;0.70;;;;;;;10.28;98.51;96434.56;5003810;28;20511;-60
2023/02/27 04:04:01;;;;;;;0.80;0.80;;;;;;;10.37;98.16;96443.31;5003119;28;20081;-59
2023/02/27 04:09:44;;;;;;;0.73;0.73;;;;;;;9.54;98.78;96404.56;4984302;28;20541;-59
2023/02/27 04:12:19;;;;;;;0.73;0.73;;;;;;;10.03;99.60;96480.56;4984536;28;20577;-58
2023/02/27 04:15:15;;;;;;;0.80;0.80;;;;;;;10.09;100.00;96476.28;4995718;28;20058;-59
2023/02/27 04:18:17;;;;;;;0.80;0.80;;;;;;;9.76;100.00;96418.25;5002783;28;20077;-58
2023/02/27 04:20:48;;;;;;;0.75;0.75;;;;;;;10.18;100.00;96471.22;5002392;28;20123;-60
2023/02/27 04:23:25;;;;;;;0.80;0.80;;;;;;;10.28;100.00;96487.16;5005978;28;20476;-59
2023/02/27 04:26:38;;;;;;;0.80;0.80;;;;;;;10.18;100.00;96495.38;5006325;28;20049;-59
2023/02/27 04:29:16;;;;;;;0.80;0.80;;;;;;;9.77;100.00;96419.81;4993944;28;20082;-58
2023/02/27 04:32:09;;;;;;;0.90;0.90;;;;;;;9.97;100.00;96456.38;5007980;28;20093;-60
2023/02/27 04:34:52;;;;;;;0.70;0.70;;;;;;;9.84;99.41;96455.88;5006190;28;20563;-60
2023/02/27 04:37:43;;;;;;;0.90;0.90;;;;;;;8.32;98.30;96211.44;5008280;28;20599;-60
2023/02/27 04:40:14;;;;;;;0.80;0.80;;;;;;;9.70;98.92;96458.47;5007329;28;20109;-60
2023/02/27 04:42:47;;;;;;;0.80;0.80;;;;;;;10.13;98.39;96515.84;5006545;28;20085;-60
2023/02/27 04:45:19;;;;;;;0.85;0.85;;;;;;;10.23;97.33;96519.91;5007839;28;20054;-59
2023/02/27 04:47:55;;;;;;;0.90;0.90;;;;;;;9.91;99.61;96524.28;5007832;28;20050;-60
2023/02/27 04:50:28;;;;;;;0.80;0.80;;;;;;;9.74;100.00;96520.16;5007236;28;20547;-60
2023/02/27 04:53:03;;;;;;;;;;;;;;;9.85;100.00;96526.59;5008116;28;20505;-58
2023/02/27 04:55:36;;;;;;;0.80;0.80;;;;;;;9.40;100.00;96532.38;5007235;28;19979;-60
2023/02/27 04:58:26;;;;;;;0.80;0.80;;;;;;;9.38;100.00;96512.59;5007598;28;20100;-58
2023/02/27 05:01:00;;;;;;;0.75;0.75;;;;;;;9.83;100.00;96556.59;5005472;28;20062;-60
2023/02/27 05:03:33;;;;;;;0.70;0.70;;;;;;;9.98;100.00;96557.56;5007764;28;20521;-58
2023/02/27 05:06:01;;;;;;;0.80;0.80;;;;;;;9.98;100.00;96541.75;5007053;28;20084;-59
2023/02/27 05:08:48;;;;;;;0.90;0.90;;;;;;;10.24;99.65;96572.09;5006086;28;20104;-60
2023/02/27 05:11:24;;;;;;;0.80;0.80;;;;;;;10.26;99.21;96591.91;5007119;28;20058;-58
2023/02/27 05:13:57;;;;;;;0.80;0.80;;;;;;;10.30;99.53;96608.56;5007005;28;20136;-60
2023/02/27 05:16:40;;;;;;;0.90;0.90;;;;;;;10.28;100.00;96616.44;4987353;28;20046;-59
2023/02/27 05:19:07;;;;;;;0.80;0.80;;;;;;;10.23;100.00;96631.41;4987601;28;20054;-59
2023/02/27 05:22:04;;;;;;;0.80;0.80;;;;;;;10.46;100.00;96656.97;4993276;28;20120;-59
2023/02/27 05:24:49;;;;;;;0.90;0.90;;;;;;;10.66;100.00;96666.72;5006674;28;20053;-60
2023/02/27 05:27:19;;;;;;;0.80;0.80;;;;;;;10.80;100.00;96681.88;5006342;28;20066;-57
2023/02/27 05:29:57;;;;;;;0.80;0.80;;;;;;;10.85;100.00;96684.31;5005329;28;20053;-59
2023/02/27 05:32:32;;;;;;;0.80;0.80;;;;;;;10.79;100.00;96702.44;5007047;28;20529;-58
2023/02/27 05:35:23;;;;;;;0.80;0.80;;;;;;;10.82;96.54;96724.66;5005023;28;20417;-58
2023/02/27 05:37:59;;;;;;;0.80;0.80;;;;;;;10.57;94.90;96685.59;5006844;28;20081;-58
2023/02/27 05:40:32;;;;;;;0.80;0.80;;;;;;;10.64;92.81;96718.91;5006532;28;20054;-58
2023/02/27 05:43:02;;;;;;;0.80;0.80;;;;;;;10.89;90.64;96746.88;5007220;28;20053;-59
2023/02/27 05:45:31;;;;;;;0.80;0.80;;;;;;;10.52;87.96;96691.50;5006607;28;20172;-58
2023/02/27 05:48:03;;;;;;;0.90;0.90;;;;;;;10.96;86.81;96751.72;5005400;28;20057;-58
2023/02/27 05:50:33;;;;;;;0.80;0.80;;;;;;;10.66;85.65;96694.41;5006666;28;20505;-58
2023/02/27 05:53:03;;;;;;;0.80;0.80;;;;;;;11.12;85.78;96771.69;4993674;28;20157;-58
2023/02/27 05:55:56;;;;;;;0.80;0.80;;;;;;;10.36;85.69;96685.38;4985458;28;20130;-62
2023/02/27 05:58:29;;;;;;;0.85;0.85;;;;;;;10.87;86.74;96770.63;4985341;28;20108;-58
2023/02/27 06:01:05;;;;;;;0.80;0.80;;;;;;;11.00;86.94;96796.91;5003551;28;20053;-61
2023/02/27 06:03:34;;;;;;;0.80;0.80;;;;;;;10.77;89.05;96787.91;5006348;28;20062;-61
2023/02/27 06:06:07;;;;;;;0.80;0.80;;;;;;;10.24;91.57;96771.41;5004498;28;20068;-60
2023/02/27 06:08:34;;;;;;;0.85;0.85;;;;;;;10.14;93.50;96727.78;5006069;28;20112;-60
2023/02/27 06:11:01;;;;;;;0.80;0.80;;;;;;;10.49;95.34;96755.94;5006155;28;20140;-60
2023/02/27 06:13:28;;;;;;;0.80;0.80;;;;;;;10.54;95.81;96758.34;5006148;28;20090;-59
2023/02/27 06:15:54;;;;;;;0.77;0.77;;;;;;;10.13;94.87;96706.03;5005286;28;20062;-60
2023/02/27 06:18:21;;;;;;;0.90;0.90;;;;;;;10.59;95.18;96755.25;5005680;28;20085;-59
2023/02/27 06:20:48;;;;;;;0.80;0.80;;;;;;;10.78;94.27;96759.03;5005951;28;20145;-58
2023/02/27 06:23:16;;;;;;;0.80;0.80;;;;;;;10.62;94.82;96731.56;5005571;28;20521;-59
2023/02/27 06:25:42;;;;;;;0.90;0.90;;;;;;;11.05;94.31;96749.44;5005722;28;20076;-59
2023/02/27 06:28:10;;;;;;;0.90;0.90;;;;;;;11.21;94.94;96736.13;5004056;28;20045;-61
2023/02/27 06:30:36;;;;;;;1.00;1.00;;;;;;;11.44;93.81;96745.06;5005781;28;20134;-60
2023/02/27 06:33:04;;;;;;;0.90;0.90;;;;;;;11.55;92.81;96729.31;5005476;28;20750;-60
2023/02/27 06:35:31;;;;;;;0.90;0.90;;;;;;;11.72;92.01;96714.78;5003986;28;20532;-63
2023/02/27 06:37:58;;;;;;;0.80;0.80;;;;;;;11.70;90.96;96711.59;5005267;28;20537;-60
2023/02/27 06:40:25;;;;;;;0.90;0.90;;;;;;;11.85;90.67;96710.53;5005308;28;20058;-59
2023/02/27 06:42:51;;;;;;;1.00;1.00;;;;;;;12.11;88.42;96722.19;5005160;28;20050;-60
2023/02/27 06:45:18;;;;;;;0.90;0.90;;;;;;;12.37;86.93;96692.56;5004848;28;20583;-62
2023/02/27 06:47:45;;;;;;;1.00;1.00;;;;;;;12.22;85.79;96654.81;5004406;28;20077;-60
2023/02/27 06:50:12;;;;;;;0.90;0.90;;;;;;;11.75;85.63;96550.31;4998847;28;20042;-58
2023/02/27 06:52:39;;;;;;;0.90;0.90;;;;;;;12.89;82.95;96664.97;4992328;28;20450;-60
2023/02/27 06:55:08;;;;;;;0.93;0.93;;;;;;;13.29;82.04;96706.34;4994065;28;20120;-59
2023/02/27 06:57:35;;;;;;;1.00;1.00;;;;;;;13.38;79.75;96684.50;5003401;28;20076;-60
2023/02/27 07:00:03;;;;;;;1.20;1.20;;;;;;;13.85;77.98;96711.09;5003899;28;20578;-59
2023/02/27 07:02:29;;;;;;;1.00;1.00;;;;;;;13.74;76.41;96715.13;5004479;28;20539;-64
2023/02/27 07:04:56;;;;;;;1.00;1.00;;;;;;;13.68;77.50;96729.44;5003811;28;20444;-59
2023/02/27 07:07:23;;;;;;;1.20;1.20;;;;;;;14.33;74.52;96728.16;4994791;28;20116;-58
2023/02/27 07:10:04;;;;;;;1.33;1.33;;;;;;;14.47;72.35;96652.88;5004145;28;20142;-59
2023/02/27 07:12:31;;;;;;;1.33;1.33;;;;;;;15.26;71.57;96732.91;4990602;28;20077;-58
2023/02/27 07:14:57;;;;;;;1.30;1.30;;;;;;;13.37;70.12;96443.66;4986187;28;20054;-61
2023/02/27 07:17:24;;;;;;;1.25;1.25;;;;;;;14.71;71.30;96749.53;4985318;28;20153;-58
2023/02/27 07:19:51;;;;;;;1.25;1.25;;;;;;;14.37;74.62;96765.19;4999255;28;20050;-57
2023/02/27 07:22:17;;;;;;;1.33;1.33;;;;;;;14.72;72.63;96765.06;5003504;28;20525;-59
2023/02/27 07:24:44;;;;;;;1.20;1.20;;;;;;;14.85;70.07;96729.97;5003091;28;20436;-57
2023/02/27 07:27:11;;;;;;;1.48;1.48;;;;;;;15.26;69.92;96772.78;5003007;28;20501;-57
2023/02/27 07:29:37;;;;;;;1.30;1.30;;;;;;;14.66;72.37;96777.84;4997291;28;20165;-59
2023/02/27 07:32:04;;;;;;;1.23;1.23;;;;;;;14.18;73.06;96723.81;5002221;28;20088;-57
2023/02/27 07:34:31;;;;;;;1.23;1.23;;;;;;;14.51;72.20;96770.72;4993017;28;20448;-62
2023/02/27 07:36:57;;;;;;;1.20;1.20;;;;;;;14.66;70.26;96772.25;4982654;28;20505;-57
2023/02/27 07:39:24;;;;;;;1.30;1.30;;;;;;;14.02;72.21;96726.22;4985155;28;20132;-59
2023/02/27 07:41:51;;;;;;;1.20;1.20;;;;;;;14.22;72.14;96699.50;5001987;28;20053;-57
2023/02/27 07:44:17;;;;;;;1.30;1.30;;;;;;;14.57;72.21;96769.09;4994095;28;20073;-60
2023/02/27 07:46:46;;;;;;;1.20;1.20;;;;;;;14.31;72.36;96758.41;4993922;28;20042;-58
2023/02/27 07:49:13;;;;;;;1.30;1.30;;;;;;;14.88;71.08;96784.91;5005612;28;20072;-59
2023/02/27 07:51:39;;;;;;;1.30;1.30;;;;;;;14.51;69.21;96651.66;4995491;28;20112;-58
2023/02/27 07:54:06;;;;;;;1.23;1.23;;;;;;;15.38;67.34;96769.53;4991443;28;20129;-57
2023/02/27 07:56:33;;;;;;;1.30;1.30;;;;;;;15.23;66.06;96745.69;5002739;28;20042;-60
2023/02/27 07:59:00;;;;;;;1.50;1.50;;;;;;;15.53;64.78;96754.31;5001038;28;20062;-59
2023/02/27 08:01:26;;;;;;;1.40;1.40;;;;;;;15.32;65.05;96715.34;4993594;28;20144;-58
2023/02/27 08:03:55;;;;;;;1.40;1.40;;;;;;;15.80;64.13;96768.47;4988138;28;20406;-64
2023/02/27 08:06:23;;;;;;;1.50;1.50;;;;;;;15.93;61.23;96775.91;4986638;28;20058;-61
2023/02/27 08:08:50;;;;;;;1.30;1.30;;;;;;;16.19;61.24;96780.91;4992548;28;20050;-61
2023/02/27 08:11:17;;;;;;;1.58;1.58;;;;;;;15.98;59.34;96714.03;4999056;28;20057;-62
2023/02/27 08:13:45;;;;;;;1.60;1.60;;;;;;;16.17;58.14;96733.00;5007784;28;20128;-58
2023/02/27 08:16:29;;;;;;;1.60;1.60;;;;;;;16.06;57.85;96715.53;5007448;28;20099;-58
2023/02/27 08:18:57;;;;;;;1.60;1.60;;;;;;;14.61;56.74;96466.03;5016655;28;20511;-60
2023/02/27 08:21:24;;;;;;;1.38;1.38;;;;;;;16.63;54.93;96778.09;4999725;28;20056;-61
2023/02/27 08:23:51;;;;;;;1.70;1.70;;;;;;;16.47;54.28;96757.50;4987308;28;20057;-61
2023/02/27 08:26:18;;;;;;;1.67;1.67;;;;;;;16.78;54.63;96778.72;5005268;28;20468;-60
2023/02/27 08:28:44;;;;;;;1.60;1.60;;;;;;;16.98;53.30;96776.06;5019521;28;20046;-57
2023/02/27 08:31:11;;;;;;;1.80;1.80;;;;;;;17.16;53.37;96776.66;5009442;28;20485;-60
2023/02/27 08:33:38;;;;;;;1.80;1.80;;;;;;;17.18;53.43;96777.81;5001211;28;20113;-61
2023/02/27 08:36:06;;;;;;;1.58;1.58;;;;;;;17.36;51.86;96778.38;4991061;28;20058;-61
2023/02/27 08:38:33;;;;;;;1.80;1.80;;;;;;;17.38;50.83;96789.97;4984348;28;20529;-58
2023/02/27 08:41:00;;;;;;;1.70;1.70;;;;;;;17.13;50.32;96727.91;4994650;28;20054;-63
2023/02/27 08:43:26;;;;;;;1.83;1.83;;;;;;;17.79;50.40;96798.19;4990619;28;20280;-62
2023/02/27 08:45:53;;;;;;;1.90;1.90;;;;;;;17.73;49.69;96799.91;5002324;28;20100;-62
2023/02/27 08:48:20;;;;;;;1.77;1.77;;;;;;;17.78;49.57;96786.19;4991752;28;20061;-61
2023/02/27 08:50:47;;;;;;;1.80;1.80;;;;;;;17.74;49.17;96768.66;4995127;28;20598;-59
2023/02/27 08:53:13;;;;;;;1.80;1.80;;;;;;;17.60;48.37;96723.25;4989442;28;20086;-63
2023/02/27 08:55:41;;;;;;;2.03;2.03;;;;;;;17.78;48.36;96765.81;5002216;28;20125;-57
2023/02/27 08:58:08;;;;;;;2.00;2.00;;;;;;;18.18;48.00;96803.97;4995535;28;20626;-58
2023/02/27 09:00:35;;;;;;;1.60;1.60;;;;;;;18.08;47.21;96802.94;4990103;28;20144;-60
2023/02/27 09:03:02;;;;;;;1.90;1.90;;;;;;;18.05;46.48;96817.03;5008388;28;20127;-57
2023/02/27 09:05:29;;;;;;;1.73;1.73;;;;;;;18.06;46.13;96819.41;5014642;28;20772;-60
2023/02/27 09:07:55;;;;;;;1.65;1.65;;;;;;;18.08;46.48;96818.97;4990874;28;20050;-63
2023/02/27 09:10:22;;;;;;;1.73;1.73;;;;;;;17.94;45.78;96782.75;4993160;28;20049;-63
2023/02/27 09:12:49;;;;;;;1.70;1.70;;;;;;;18.27;45.39;96823.88;4989826;28;20050;-60
2023/02/27 09:15:15;;;;;;;1.80;1.80;;;;;;;18.22;45.58;96824.34;5003666;28;20484;-60
2023/02/27 09:17:42;;;;;;;2.00;2.00;;;;;;;17.99;45.30;96783.06;5005201;28;20057;-59
2023/02/27 09:20:11;;;;;;;1.80;1.80;;;;;;;18.44;45.25;96834.03;5003498;28;20046;-61
2023/02/27 09:22:38;;;;;;;1.70;1.70;;;;;;;18.07;45.13;96780.94;5004397;28;20058;-66
2023/02/27 09:25:05;;;;;;;1.80;1.80;;;;;;;18.47;45.34;96833.16;5000368;28;20195;-61
2023/02/27 09:27:33;;;;;;;1.75;1.75;;;;;;;18.40;45.51;96832.50;5002119;28;20348;-58
2023/02/27 09:30:00;;;;;;;1.80;1.80;;;;;;;18.50;44.86;96837.13;5004672;28;20125;-62
2023/02/27 09:32:26;;;;;;;1.80;1.80;;;;;;;18.31;44.54;96785.34;5006502;28;20061;-59
2023/02/27 09:34:53;;;;;;;2.00;2.00;;;;;;;18.67;44.74;96814.38;5006003;28;20107;-62
2023/02/27 09:37:20;;;;;;;2.00;2.00;;;;;;;16.77;41.11;96502.22;5006710;28;20168;-62
2023/02/27 09:39:47;;;;;;;2.03;2.03;;;;;;;18.84;40.99;96841.31;4997378;28;20046;-60
2023/02/27 09:42:19;;;;;;;2.08;2.08;;;;;;;18.17;40.77;96723.91;5016004;28;20057;-63
2023/02/27 09:44:48;;;;;;;1.98;1.98;;;;;;;19.06;40.42;96845.28;4989660;28;20564;-60
2023/02/27 09:47:29;;;;;;;1.73;1.73;;;;;;;19.21;42.03;96848.63;4998094;28;20057;-62
2023/02/27 09:50:17;;;;;;;1.60;1.60;;;;;;;19.37;41.04;96851.53;5006110;28;20050;-61
2023/02/27 09:52:44;;;;;;;2.00;2.00;;;;;;;19.23;40.27;96844.16;4990673;28;20675;-61
2023/02/27 09:55:16;;;;;;;2.00;2.00;;;;;;;19.18;40.38;96841.84;4995594;28;20050;-59
2023/02/27 09:58:00;;;;;;;2.13;2.13;;;;;;;19.25;40.33;96844.50;4991178;28;20054;-62
2023/02/27 10:00:51;;;;;;;1.90;1.90;;;;;;;19.15;40.02;96803.41;5005084;28;20578;-58
2023/02/27 10:03:44;;;;;;;1.88;1.88;;;;;;;19.78;39.60;96834.19;4990572;28;20058;-65
2023/02/27 10:06:11;;;;;;;2.00;2.00;;;;;;;19.94;38.46;96831.41;4997603;28;20050;-58
2023/02/27 10:08:49;;;;;;;1.95;1.95;;;;;;;19.99;38.36;96822.47;5005977;28;20120;-59
2023/02/27 10:11:39;;;;;;;2.13;2.13;;;;;;;20.23;40.17;96812.69;5007624;28;20539;-60
2023/02/27 10:14:28;;;;;;;1.80;1.80;;;;;;;20.48;40.36;96818.47;5004587;28;20092;-61
2023/02/27 10:16:57;;;;;;;1.92;1.92;;;;;;;20.49;40.32;96803.16;5000677;28;20116;-60
2023/02/27 10:19:30;;;;;;;1.90;1.90;;;;;;;20.72;39.76;96808.59;4996789;28;20077;-65
2023/02/27 10:22:00;;;;;;;2.10;2.10;;;;;;;20.40;39.36;96777.69;4962485;28;20407;-66
2023/02/27 10:24:36;;;;;;;2.00;2.00;;;;;;;20.65;39.04;96823.66;4960040;28;20065;-60
2023/02/27 10:27:10;;;;;;;2.15;2.15;;;;;;;21.03;39.08;96832.31;4954342;28;20547;-60
2023/02/27 10:29:40;;;;;;;2.10;2.10;;;;;;;20.84;38.26;96841.66;4967826;28;20164;-59
2023/02/27 10:32:21;;;;;;;2.13;2.13;;;;;;;20.70;38.68;96797.78;4967814;28;20057;-59
2023/02/27 10:35:05;;;;;;;2.20;2.20;;;;;;;20.48;38.76;96776.25;4957494;28;20050;-62
2023/02/27 10:37:35;;;;;;;2.20;2.20;;;;;;;21.03;38.25;96837.94;4969470;28;20140;-58
2023/02/27 10:40:05;;;;;;;2.13;2.13;;;;;;;21.26;38.29;96812.34;4969800;28;20046;-59
2023/02/27 10:42:36;;;;;;;2.00;2.00;;;;;;;21.88;37.27;96831.47;4964983;28;20639;-57
2023/02/27 10:45:11;;;;;;;2.60;2.50;;;;;;;22.07;37.21;96771.22;4966535;28;20045;-60
2023/02/27 10:47:38;;;;;;;2.50;2.40;;;;;;;22.42;37.12;96814.41;4970395;28;20419;-59
2023/02/27 10:50:21;;;;;;;2.55;2.45;;;;;;;22.46;35.58;96813.03;4971497;28;20470;-58
2023/02/27 10:52:50;;;;;;;2.78;2.67;;;;;;;22.65;34.47;96793.50;4964777;28;20112;-59
2023/02/27 10:55:22;;;;;;;2.63;2.53;;;;;;;22.47;36.14;96811.03;4965019;28;20158;-58
2023/02/27 10:57:49;;;;;;;2.55;2.45;;;;;;;22.29;35.90;96816.44;4976302;28;21029;-62
2023/02/27 11:00:27;;;;;;;3.00;2.90;;;;;;;22.28;35.34;96849.56;4963401;28;21051;-59
2023/02/27 11:02:54;;;;;;;2.90;2.80;;;;;;;22.22;35.87;96809.00;4973569;28;20155;-60
2023/02/27 11:05:32;;;;;;;2.53;2.42;;;;;;;21.97;35.91;96789.25;4970480;28;20042;-58
2023/02/27 11:08:29;;;;;;;2.50;2.40;;;;;;;21.73;36.44;96810.56;4961025;28;20485;-59
2023/02/27 11:11:03;;;;;;;2.20;2.20;;;;;;;21.32;36.89;96801.31;4958007;28;20050;-57
2023/02/27 11:13:34;;;;;;;2.30;2.30;;;;;;;21.21;36.86;96784.75;4958813;28;20160;-58
2023/02/27 11:16:08;;;;;;;2.10;2.10;;;;;;;21.27;37.20;96802.66;4968060;28;20116;-60
2023/02/27 11:18:36;;;;;;;;;;;;;;;21.21;37.19;96801.63;4972288;28;20054;-58
2023/02/27 11:21:08;;;;;;;2.20;2.20;;;;;;;21.05;37.93;96807.31;4967380;28;19929;-57
2023/02/27 11:23:35;;;;;;;2.00;2.00;;;;;;;20.16;37.90;96787.53;4957422;28;20952;-58
2023/02/27 11:26:14;;;;;;;2.15;2.15;;;;;;;20.87;37.78;96801.34;4962678;28;20771;-65
2023/02/27 11:28:41;;;;;;;2.00;2.00;;;;;;;20.29;38.34;96740.59;4954664;28;20046;-63
2023/02/27 11:31:22;;;;;;;2.10;2.10;;;;;;;20.81;38.07;96803.13;4959391;28;20089;-57
2023/02/27 11:33:57;;;;;;;2.22;2.22;;;;;;;20.29;38.20;96765.91;4970476;28;20159;-57
2023/02/27 11:36:48;;;;;;;1.90;1.90;;;;;;;20.45;38.30;96808.09;4968527;28;20089;-61
2023/02/27 11:39:32;;;;;;;2.28;2.28;;;;;;;20.18;38.33;96754.13;4960653;28;20566;-58
2023/02/27 11:42:13;;;;;;;2.08;2.08;;;;;;;20.03;38.69;96756.47;4952231;28;20054;-61
2023/02/27 11:45:20;;;;;;;1.92;1.92;;;;;;;20.44;38.86;96798.88;4956000;28;20056;-60
2023/02/27 11:48:17;;;;;;;2.10;2.10;;;;;;;20.34;38.81;96802.75;4969326;28;20050;-65
2023/02/27 11:51:10;;;;;;;1.70;1.70;;;;;;;19.25;39.68;96723.75;4968039;28;20500;-59
2023/02/27 11:54:03;;;;;;;2.00;2.00;;;;;;;20.44;39.05;96800.88;4956666;28;20823;-59
2023/02/27 11:56:36;;;;;;;1.88;1.88;;;;;;;20.54;38.70;96806.25;4970534;28;20647;-60
2023/02/27 11:59:09;;;;;;;2.22;2.22;;;;;;;20.66;38.40;96801.94;4972809;28;20400;-59
2023/02/27 12:02:00;;;;;;;2.00;2.00;;;;;;;20.77;38.05;96892.53;4960577;28;20531;-57
2023/02/27 12:04:40;;;;;;;2.03;2.03;;;;;;;20.72;37.75;96786.09;4974311;28;20576;-59